createdAt,value
2022-09-13T00:03:54.456Z,3.88
2022-09-13T00:09:17.528Z,3.78
2022-09-13T00:14:41.987Z,4.05
2022-09-13T00:20:06.096Z,4.32
2022-09-13T00:25:29.192Z,4.50
2022-09-13T00:30:54.943Z,3.95
2022-09-13T00:36:18.233Z,4.18
2022-09-13T00:41:41.430Z,4.40
2022-09-13T00:47:06.230Z,3.95
2022-09-13T00:52:31.071Z,5.25
2022-09-13T00:57:55.029Z,4.10
2022-09-13T01:03:21.299Z,3.75
2022-09-13T01:08:46.827Z,4.72
2022-09-13T01:14:10.523Z,4.57
2022-09-13T01:19:34.935Z,5.03
2022-09-13T01:25:31.513Z,5.07
2022-09-13T01:30:59.536Z,5.43
2022-09-13T01:36:36.561Z,6.10
2022-09-13T01:42:08.328Z,5.57
2022-09-13T01:47:34.767Z,6.60
2022-09-13T01:53:00.511Z,5.88
2022-09-13T01:58:27.676Z,5.97
2022-09-13T02:03:55.738Z,7.60
2022-09-13T02:09:22.408Z,6.30
2022-09-13T02:14:46.842Z,6.03
2022-09-13T02:20:17.215Z,6.13
2022-09-13T02:25:44.380Z,7.03
2022-09-13T02:31:09.444Z,5.00
2022-09-13T02:36:36.737Z,5.95
2022-09-13T02:42:10.493Z,5.40
2022-09-13T02:47:43.693Z,5.50
2022-09-13T02:53:13.763Z,5.57
2022-09-13T02:58:44.878Z,5.28
2022-09-13T03:04:08.036Z,5.78
2022-09-13T03:09:32.853Z,6.40
2022-09-13T03:15:00.417Z,6.25
2022-09-13T03:20:27.936Z,5.55
2022-09-13T03:26:05.941Z,6.60
2022-09-13T03:31:33.674Z,5.82
2022-09-13T03:36:58.324Z,5.75
2022-09-13T03:42:24.953Z,7.10
2022-09-13T03:47:49.569Z,6.05
2022-09-13T03:53:15.569Z,5.70
2022-09-13T03:58:39.961Z,5.90
2022-09-13T04:04:03.506Z,5.22
2022-09-13T04:09:26.631Z,5.57
2022-09-13T04:14:51.009Z,5.15
2022-09-13T04:20:14.234Z,5.40
2022-09-13T04:25:40.578Z,4.55
2022-09-13T04:31:05.180Z,4.35
2022-09-13T04:36:28.563Z,3.90
2022-09-13T04:41:54.530Z,2.95
2022-09-13T04:47:19.140Z,2.40
2022-09-13T04:52:44.774Z,1.50
2022-09-13T04:58:07.868Z,1.20
2022-09-13T05:03:32.867Z,1.10
2022-09-13T05:08:56.727Z,0.90
2022-09-13T05:14:19.816Z,0.90
2022-09-13T05:19:44.331Z,0.90
2022-09-13T05:25:09.011Z,1.20
2022-09-13T05:30:32.159Z,0.95
2022-09-13T05:35:56.617Z,0.57
2022-09-13T05:41:19.759Z,1.00
2022-09-13T05:46:45.928Z,0.80
2022-09-13T05:52:10.371Z,1.15
2022-09-13T05:57:33.531Z,0.95
2022-09-13T06:02:57.422Z,1.00
2022-09-13T06:08:21.888Z,1.10
2022-09-13T06:13:45.132Z,1.00
2022-09-13T06:19:08.821Z,1.55
2022-09-13T06:24:33.299Z,1.33
2022-09-13T06:29:56.452Z,0.95
2022-09-13T06:35:19.536Z,0.73
2022-09-13T06:40:44.778Z,1.10
2022-09-13T06:46:09.584Z,0.95
2022-09-13T06:51:33.929Z,0.80
2022-09-13T06:56:58.388Z,0.93
2022-09-13T07:02:21.565Z,0.77
2022-09-13T07:07:44.949Z,0.90
2022-09-13T07:13:09.412Z,0.93
2022-09-13T07:18:32.691Z,1.70
2022-09-13T07:23:58.052Z,0.88
2022-09-13T07:29:23.863Z,1.15
2022-09-13T07:34:47.135Z,1.13
2022-09-13T07:40:11.663Z,1.15
2022-09-13T07:45:36.482Z,0.95
2022-09-13T07:51:01.059Z,1.05
2022-09-13T07:56:25.827Z,1.15
2022-09-13T08:01:52.015Z,2.55
2022-09-13T08:07:15.411Z,1.85
2022-09-13T08:12:38.450Z,0.90
2022-09-13T08:18:02.883Z,1.30
2022-09-13T08:23:26.534Z,1.00
2022-09-13T08:28:49.643Z,0.90
2022-09-13T08:34:15.493Z,1.13
2022-09-13T08:39:38.650Z,1.30
2022-09-13T08:45:01.812Z,1.00
2022-09-13T08:50:29.412Z,0.77
2022-09-13T08:55:58.088Z,0.93
2022-09-13T09:01:28.335Z,0.75
2022-09-13T09:07:03.271Z,0.52
2022-09-13T09:12:31.743Z,1.00
2022-09-13T09:17:59.930Z,0.70
2022-09-13T09:23:27.433Z,0.82
2022-09-13T09:28:52.077Z,0.75
2022-09-13T09:34:22.776Z,0.77
2022-09-13T09:39:47.335Z,0.55
2022-09-13T09:45:26.583Z,0.60
2022-09-13T09:50:53.099Z,0.60
2022-09-13T09:56:22.834Z,0.47
2022-09-13T10:01:48.179Z,0.88
2022-09-13T10:07:23.811Z,1.17
2022-09-13T10:12:50.902Z,0.50
2022-09-13T10:18:42.274Z,0.47
2022-09-13T10:24:19.060Z,1.52
2022-09-13T10:29:48.476Z,0.70
2022-09-13T10:35:17.987Z,0.70
2022-09-13T10:40:41.109Z,0.80
2022-09-13T10:46:17.045Z,0.60
2022-09-13T10:51:40.310Z,0.77
2022-09-13T10:57:28.674Z,1.00
2022-09-13T11:03:04.368Z,0.80
2022-09-13T11:08:37.343Z,1.27
2022-09-13T11:14:08.377Z,0.73
2022-09-13T11:19:57.314Z,1.17
2022-09-13T11:25:33.731Z,1.10
2022-09-13T11:31:07.197Z,0.70
2022-09-13T11:36:52.022Z,0.77
2022-09-13T11:42:27.901Z,0.80
2022-09-13T11:48:31.575Z,0.60
2022-09-13T11:54:08.742Z,0.60
2022-09-13T11:59:38.733Z,0.50
2022-09-13T12:05:23.630Z,0.70
2022-09-13T12:10:52.275Z,0.80
2022-09-13T12:16:19.517Z,0.80
2022-09-13T12:21:44.294Z,1.48
2022-09-13T12:27:12.355Z,0.65
2022-09-13T12:32:35.510Z,0.93
2022-09-13T12:38:11.999Z,0.45
2022-09-13T12:44:07.682Z,0.90
2022-09-13T12:49:40.408Z,0.63
2022-09-13T12:55:45.953Z,0.50
2022-09-13T13:01:12.881Z,0.60
2022-09-13T13:06:38.717Z,0.88
2022-09-13T13:12:01.941Z,0.70
2022-09-13T13:17:47.698Z,0.65
2022-09-13T13:23:24.394Z,0.60
2022-09-13T13:29:15.694Z,0.73
2022-09-13T13:34:43.938Z,0.50
2022-09-13T13:40:22.164Z,0.60
2022-09-13T13:45:58.906Z,0.70
2022-09-13T13:51:25.711Z,0.60
2022-09-13T13:56:50.208Z,1.08
2022-09-13T14:02:13.597Z,1.00
2022-09-13T14:07:59.875Z,0.50
2022-09-13T14:13:41.735Z,0.50
2022-09-13T14:19:24.053Z,0.70
2022-09-13T14:24:49.746Z,1.05
2022-09-13T14:30:20.925Z,1.10
2022-09-13T14:35:43.982Z,1.40
2022-09-13T14:41:17.411Z,0.90
2022-09-13T14:46:43.712Z,1.20
2022-09-13T14:52:09.772Z,0.65
2022-09-13T14:57:36.657Z,0.50
2022-09-13T15:03:02.825Z,1.35
2022-09-13T15:08:44.943Z,0.82
2022-09-13T15:14:26.822Z,0.55
2022-09-13T15:19:52.392Z,1.15
2022-09-13T15:25:20.184Z,1.02
2022-09-13T15:30:45.432Z,1.23
2022-09-13T15:36:16.250Z,0.93
2022-09-13T15:41:40.821Z,1.33
2022-09-13T15:47:10.676Z,0.95
2022-09-13T15:52:33.839Z,1.10
2022-09-13T15:57:56.961Z,0.93
2022-09-13T16:03:21.398Z,1.02
2022-09-13T16:08:44.639Z,1.08
2022-09-13T16:14:07.839Z,1.17
2022-09-13T16:19:32.401Z,0.75
2022-09-13T16:24:55.581Z,0.82
2022-09-13T16:30:20.507Z,1.30
2022-09-13T16:35:45.052Z,1.02
2022-09-13T16:41:08.969Z,1.00
2022-09-13T16:46:32.149Z,1.15
2022-09-13T16:51:59.329Z,1.33
2022-09-13T16:57:22.401Z,0.90
2022-09-13T17:02:45.677Z,0.90
2022-09-13T17:08:10.381Z,0.82
2022-09-13T17:13:33.450Z,0.95
2022-09-13T17:18:58.545Z,1.20
2022-09-13T17:24:22.986Z,0.90
2022-09-13T17:29:46.038Z,0.95
2022-09-13T17:35:10.968Z,1.08
2022-09-13T17:40:35.543Z,1.52
2022-09-13T17:45:58.932Z,2.30
2022-09-13T17:51:23.801Z,1.92
2022-09-13T17:56:48.388Z,1.88
2022-09-13T18:02:11.965Z,3.13
2022-09-13T18:07:35.036Z,1.55
2022-09-13T18:12:59.512Z,1.48
2022-09-13T18:18:22.578Z,0.93
2022-09-13T18:23:46.914Z,0.90
2022-09-13T18:29:14.812Z,0.70
2022-09-13T18:34:37.919Z,1.20
2022-09-13T18:40:01.054Z,1.00
2022-09-13T18:45:26.374Z,2.03
2022-09-13T18:50:49.895Z,1.73
2022-09-13T18:56:15.224Z,1.50
2022-09-13T19:01:42.389Z,3.13
2022-09-13T19:07:07.319Z,2.17
2022-09-13T19:12:31.064Z,0.90
2022-09-13T19:17:56.058Z,0.70
2022-09-13T19:23:20.100Z,0.87
2022-09-13T19:28:47.806Z,1.57
2022-09-13T19:34:14.832Z,0.65
2022-09-13T19:39:38.007Z,0.93
2022-09-13T19:45:01.220Z,0.90
2022-09-13T19:50:25.718Z,0.93
2022-09-13T19:55:49.412Z,0.83
2022-09-13T20:01:15.252Z,0.87
2022-09-13T20:06:41.171Z,0.90
2022-09-13T20:12:07.249Z,1.20
2022-09-13T20:17:30.437Z,1.00
2022-09-13T20:22:54.937Z,0.97
2022-09-13T20:28:18.120Z,0.80
2022-09-13T20:33:41.385Z,0.80
2022-09-13T20:39:06.315Z,2.00
2022-09-13T20:44:29.420Z,0.93
2022-09-13T20:49:52.551Z,0.70
2022-09-13T20:55:17.170Z,1.57
2022-09-13T21:00:40.280Z,0.70
2022-09-13T21:06:03.486Z,1.60
2022-09-13T21:11:30.427Z,0.97
2022-09-13T21:16:55.124Z,0.90
2022-09-13T21:22:18.297Z,0.97
2022-09-13T21:27:45.621Z,1.13
2022-09-13T21:33:08.904Z,0.80
2022-09-13T21:38:34.734Z,1.00
2022-09-13T21:43:59.225Z,0.93
2022-09-13T21:49:23.110Z,1.00
2022-09-13T21:54:46.381Z,1.40
2022-09-13T22:00:13.900Z,1.13
2022-09-13T22:05:37.058Z,0.87
2022-09-13T22:11:04.614Z,0.80
2022-09-13T22:16:31.774Z,1.60
2022-09-13T22:21:58.788Z,1.07
2022-09-13T22:27:21.851Z,1.53
2022-09-13T22:32:46.514Z,1.43
2022-09-13T22:38:09.690Z,0.73
2022-09-13T22:43:33.760Z,0.87
2022-09-13T22:48:58.371Z,1.03
2022-09-13T22:54:21.997Z,1.53
2022-09-13T22:59:45.122Z,1.27
2022-09-13T23:05:32.955Z,1.10
2022-09-13T23:10:56.258Z,0.90
2022-09-13T23:16:23.941Z,1.73
2022-09-13T23:21:48.813Z,0.90
2022-09-13T23:27:12.119Z,1.33
2022-09-13T23:32:35.227Z,0.70
2022-09-13T23:37:59.736Z,1.03
2022-09-13T23:43:22.824Z,0.93
2022-09-13T23:48:46.388Z,1.40
2022-09-13T23:54:11.197Z,1.10
2022-09-13T23:59:34.302Z,1.00
